createdAt,value
2018-03-04T00:00:12.431Z,123.53
2018-03-04T00:02:40.638Z,132.83
2018-03-04T00:05:08.422Z,128.73
2018-03-04T00:07:36.739Z,141.15
2018-03-04T00:10:06.351Z,130.60
2018-03-04T00:12:34.820Z,146.27
2018-03-04T00:15:02.388Z,131.03
2018-03-04T00:17:30.008Z,123.40
2018-03-04T00:19:59.094Z,124.50
2018-03-04T00:22:40.196Z,134.65
2018-03-04T00:25:09.281Z,142.70
2018-03-04T00:27:37.929Z,123.27
2018-03-04T00:30:06.618Z,113.30
2018-03-04T00:32:36.375Z,118.43
2018-03-04T00:35:04.937Z,119.90
2018-03-04T00:37:33.570Z,134.83
2018-03-04T00:40:02.929Z,125.00
2018-03-04T00:42:34.004Z,124.57
2018-03-04T00:45:03.228Z,127.87
2018-03-04T00:47:31.154Z,133.18
2018-03-04T00:50:01.462Z,131.73
2018-03-04T00:52:29.539Z,129.43
2018-03-04T00:54:58.668Z,131.07
2018-03-04T00:57:28.153Z,130.60
2018-03-04T00:59:56.724Z,133.00
2018-03-04T01:02:26.315Z,153.10
2018-03-04T01:04:55.710Z,143.13
2018-03-04T01:07:24.143Z,133.70
2018-03-04T01:09:51.814Z,131.95
2018-03-04T01:12:19.392Z,117.53
2018-03-04T01:14:46.975Z,138.30
2018-03-04T01:17:15.755Z,119.97
2018-03-04T01:19:44.753Z,134.77
2018-03-04T01:22:12.343Z,136.67
2018-03-04T01:24:39.908Z,123.27
2018-03-04T01:27:09.462Z,129.43
2018-03-04T01:29:38.825Z,129.10
2018-03-04T01:32:06.412Z,177.63
2018-03-04T01:34:36.527Z,188.27
2018-03-04T01:37:04.145Z,147.00
2018-03-04T01:39:34.006Z,136.67
2018-03-04T01:42:04.523Z,122.18
2018-03-04T01:44:32.665Z,129.47
2018-03-04T01:47:01.300Z,116.37
2018-03-04T01:49:30.214Z,129.35
2018-03-04T01:51:59.429Z,125.10
2018-03-04T01:54:29.263Z,120.37
2018-03-04T01:56:57.637Z,123.37
2018-03-04T01:59:26.172Z,122.00
2018-03-04T02:01:55.253Z,130.60
2018-03-04T02:04:24.087Z,121.30
2018-03-04T02:06:51.664Z,119.83
2018-03-04T02:09:21.576Z,121.28
2018-03-04T02:11:49.191Z,120.78
2018-03-04T02:14:17.627Z,126.00
2018-03-04T02:16:46.729Z,122.33
2018-03-04T02:19:14.322Z,122.67
2018-03-04T02:21:42.825Z,118.23
2018-03-04T02:24:11.718Z,124.27
2018-03-04T02:26:44.925Z,117.77
2018-03-04T02:29:14.323Z,118.80
2018-03-04T02:31:43.423Z,132.47
2018-03-04T02:34:11.913Z,113.18
2018-03-04T02:36:40.002Z,124.70
2018-03-04T02:39:08.702Z,130.70
2018-03-04T02:41:37.308Z,119.17
2018-03-04T02:44:07.028Z,150.68
2018-03-04T02:46:37.222Z,144.45
2018-03-04T02:49:05.460Z,127.00
2018-03-04T02:51:33.796Z,133.07
2018-03-04T02:54:01.840Z,141.13
2018-03-04T02:56:29.789Z,123.25
2018-03-04T02:58:57.558Z,118.43
2018-03-04T03:01:27.733Z,134.93
2018-03-04T03:03:57.458Z,124.95
2018-03-04T03:06:29.803Z,156.37
2018-03-04T03:09:00.189Z,138.87
2018-03-04T03:11:31.320Z,136.82
2018-03-04T03:14:01.515Z,115.87
2018-03-04T03:16:32.023Z,137.80
2018-03-04T03:19:02.231Z,139.83
2018-03-04T03:21:33.351Z,136.17
2018-03-04T03:24:03.170Z,132.10
2018-03-04T03:26:32.408Z,126.25
2018-03-04T03:29:02.439Z,129.00
2018-03-04T03:31:31.703Z,141.63
2018-03-04T03:34:05.880Z,138.87
2018-03-04T03:36:36.266Z,140.20
2018-03-04T03:39:07.201Z,143.65
2018-03-04T03:41:37.709Z,144.32
2018-03-04T03:44:05.544Z,144.53
2018-03-04T03:46:38.066Z,146.40
2018-03-04T03:49:08.275Z,140.10
2018-03-04T03:51:35.963Z,142.30
2018-03-04T03:54:03.912Z,151.05
2018-03-04T03:56:34.278Z,146.33
2018-03-04T03:59:02.651Z,154.40
2018-03-04T04:01:30.523Z,149.77
2018-03-04T04:04:01.298Z,141.37
2018-03-04T04:06:31.539Z,159.73
2018-03-04T04:09:04.781Z,151.20
2018-03-04T04:11:33.973Z,156.23
2018-03-04T04:14:01.555Z,161.83
2018-03-04T04:16:29.146Z,162.90
2018-03-04T04:18:56.720Z,153.37
2018-03-04T04:21:30.121Z,164.37
2018-03-04T04:23:59.397Z,150.65
2018-03-04T04:26:28.448Z,147.87
2018-03-04T04:28:57.304Z,161.43
2018-03-04T04:31:26.718Z,153.87
2018-03-04T04:33:56.073Z,147.07
2018-03-04T04:36:25.197Z,162.50
2018-03-04T04:38:57.036Z,138.07
2018-03-04T04:41:27.158Z,149.40
2018-03-04T04:43:56.935Z,153.90
2018-03-04T04:46:26.257Z,163.53
2018-03-04T04:48:55.853Z,161.63
2018-03-04T04:51:26.433Z,145.53
2018-03-04T04:53:54.951Z,150.67
2018-03-04T04:56:25.720Z,161.30
2018-03-04T04:58:55.244Z,162.87
2018-03-04T05:01:23.805Z,144.67
2018-03-04T05:03:53.233Z,145.07
2018-03-04T05:06:21.849Z,142.23
2018-03-04T05:08:55.869Z,134.37
2018-03-04T05:11:24.331Z,154.17
2018-03-04T05:13:53.277Z,151.45
2018-03-04T05:16:24.004Z,148.13
2018-03-04T05:18:52.589Z,143.70
2018-03-04T05:21:21.896Z,144.00
2018-03-04T05:23:51.139Z,131.33
2018-03-04T05:26:22.554Z,148.05
2018-03-04T05:28:50.208Z,133.83
2018-03-04T05:31:17.828Z,142.33
2018-03-04T05:33:48.200Z,132.07
2018-03-04T05:36:18.493Z,129.77
2018-03-04T05:38:46.154Z,134.20
2018-03-04T05:41:13.765Z,140.57
2018-03-04T05:43:41.761Z,132.07
2018-03-04T05:46:10.054Z,145.70
2018-03-04T05:48:38.781Z,148.27
2018-03-04T05:51:07.155Z,146.43
2018-03-04T05:53:37.172Z,133.33
2018-03-04T05:56:07.003Z,130.33
2018-03-04T05:58:36.434Z,141.23
2018-03-04T06:01:05.280Z,138.53
2018-03-04T06:03:32.852Z,139.20
2018-03-04T06:06:00.457Z,143.43
2018-03-04T06:08:28.082Z,152.27
2018-03-04T06:10:58.161Z,130.65
2018-03-04T06:13:26.416Z,147.10
2018-03-04T06:15:55.057Z,136.40
2018-03-04T06:18:23.852Z,147.17
2018-03-04T06:20:53.536Z,154.23
2018-03-04T06:23:21.053Z,138.47
2018-03-04T06:25:50.248Z,141.93
2018-03-04T06:28:18.166Z,149.60
2018-03-04T06:30:45.748Z,140.27
2018-03-04T06:33:15.285Z,144.10
2018-03-04T06:35:43.576Z,127.13
2018-03-04T06:38:12.073Z,137.60
2018-03-04T06:40:39.644Z,168.43
2018-03-04T06:43:07.198Z,137.93
2018-03-04T06:45:34.936Z,145.50
2018-03-04T06:48:03.962Z,154.90
2018-03-04T06:50:31.541Z,132.75
2018-03-04T06:52:59.530Z,143.30
2018-03-04T06:55:27.409Z,149.67
2018-03-04T06:57:55.391Z,140.67
2018-03-04T07:00:24.008Z,149.47
2018-03-04T07:02:52.566Z,139.97
2018-03-04T07:05:20.116Z,154.20
2018-03-04T07:07:49.109Z,154.85
2018-03-04T07:10:16.724Z,145.18
2018-03-04T07:12:45.472Z,129.87
2018-03-04T07:15:13.296Z,130.67
2018-03-04T07:17:42.778Z,168.40
2018-03-04T07:20:12.135Z,150.07
2018-03-04T07:22:40.442Z,135.75
2018-03-04T07:25:08.890Z,136.30
2018-03-04T07:27:36.958Z,155.13
2018-03-04T07:30:05.387Z,135.40
2018-03-04T07:32:32.965Z,139.93
2018-03-04T07:35:02.324Z,145.77
2018-03-04T07:37:31.002Z,132.47
2018-03-04T07:39:59.902Z,127.85
2018-03-04T07:42:29.268Z,130.30
2018-03-04T07:44:58.574Z,130.67
2018-03-04T07:47:26.261Z,158.37
2018-03-04T07:49:54.600Z,126.72
2018-03-04T07:52:23.276Z,130.20
2018-03-04T07:54:52.101Z,141.27
2018-03-04T07:57:19.851Z,129.02
2018-03-04T07:59:48.566Z,126.10
2018-03-04T08:02:17.908Z,140.63
2018-03-04T08:04:46.539Z,140.80
2018-03-04T08:07:15.454Z,124.47
2018-03-04T08:09:45.014Z,130.43
2018-03-04T08:12:16.364Z,135.10
2018-03-04T08:14:45.261Z,128.10
2018-03-04T08:17:12.825Z,129.80
2018-03-04T08:19:40.386Z,131.60
2018-03-04T08:22:09.749Z,130.47
2018-03-04T08:24:40.497Z,124.67
2018-03-04T08:27:22.405Z,120.25
2018-03-04T08:29:51.394Z,124.87
2018-03-04T08:32:19.009Z,110.40
2018-03-04T08:34:48.739Z,125.87
2018-03-04T08:37:17.730Z,126.68
2018-03-04T08:39:46.553Z,125.72
2018-03-04T08:42:16.298Z,111.93
2018-03-04T08:44:45.310Z,129.90
2018-03-04T08:47:14.326Z,142.03
2018-03-04T08:49:43.890Z,133.70
2018-03-04T08:52:14.009Z,118.40
2018-03-04T08:54:43.571Z,121.78
2018-03-04T08:57:11.541Z,129.10
2018-03-04T08:59:39.806Z,133.35
2018-03-04T09:02:08.533Z,118.77
2018-03-04T09:04:36.469Z,120.80
2018-03-04T09:07:06.165Z,112.40
2018-03-04T09:09:35.615Z,113.57
2018-03-04T09:12:03.270Z,123.77
2018-03-04T09:14:31.843Z,111.90
2018-03-04T09:17:00.458Z,109.27
2018-03-04T09:19:29.350Z,118.45
2018-03-04T09:21:57.034Z,110.93
2018-03-04T09:24:26.580Z,103.13
2018-03-04T09:26:54.864Z,111.00
2018-03-04T09:29:27.949Z,111.67
2018-03-04T09:31:56.041Z,116.37
2018-03-04T09:34:24.387Z,110.13
2018-03-04T09:36:53.350Z,104.77
2018-03-04T09:39:22.934Z,114.67
2018-03-04T09:41:51.301Z,98.97
2018-03-04T09:44:19.527Z,108.37
2018-03-04T09:46:49.495Z,116.43
2018-03-04T09:49:18.061Z,105.27
2018-03-04T09:51:49.398Z,108.10
2018-03-04T09:54:18.703Z,152.33
2018-03-04T09:56:48.209Z,130.67
2018-03-04T09:59:16.969Z,118.40
2018-03-04T10:01:45.293Z,125.40
2018-03-04T10:04:14.617Z,117.95
2018-03-04T10:06:44.411Z,104.43
2018-03-04T10:09:12.839Z,101.93
2018-03-04T10:11:41.172Z,106.93
2018-03-04T10:14:08.795Z,121.67
2018-03-04T10:16:37.663Z,109.37
2018-03-04T10:19:05.312Z,98.97
2018-03-04T10:21:33.913Z,111.05
2018-03-04T10:24:01.899Z,122.40
2018-03-04T10:26:29.881Z,111.80
2018-03-04T10:28:57.668Z,107.78
2018-03-04T10:31:25.274Z,112.60
2018-03-04T10:33:53.795Z,91.15
2018-03-04T10:36:21.792Z,95.83
2018-03-04T10:38:50.306Z,98.47
2018-03-04T10:41:19.298Z,92.50
2018-03-04T10:43:46.933Z,101.07
2018-03-04T10:46:14.476Z,88.20
2018-03-04T10:48:42.089Z,98.57
2018-03-04T10:51:10.057Z,93.90
2018-03-04T10:53:37.685Z,84.67
2018-03-04T10:56:05.284Z,88.23
2018-03-04T10:58:33.295Z,89.30
2018-03-04T11:01:06.422Z,90.28
2018-03-04T11:03:33.967Z,94.70
2018-03-04T11:06:01.554Z,95.77
2018-03-04T11:08:29.846Z,98.00
2018-03-04T11:10:57.883Z,86.35
2018-03-04T11:13:25.415Z,90.60
2018-03-04T11:15:52.969Z,89.60
2018-03-04T11:18:20.553Z,81.07
2018-03-04T11:20:48.853Z,89.33
2018-03-04T11:23:16.595Z,85.60
2018-03-04T11:25:44.134Z,90.67
2018-03-04T11:28:12.610Z,92.87
2018-03-04T11:30:40.169Z,80.37
2018-03-04T11:33:07.751Z,86.40
2018-03-04T11:35:35.316Z,81.20
2018-03-04T11:38:02.957Z,82.33
2018-03-04T11:40:30.537Z,78.03
2018-03-04T11:42:58.627Z,78.63
2018-03-04T11:48:25.981Z,74.80
2018-03-04T11:50:53.983Z,71.28
2018-03-04T11:53:22.893Z,73.05
2018-03-04T11:55:50.490Z,72.57
2018-03-04T11:58:19.692Z,70.67
2018-03-04T12:00:47.298Z,69.10
2018-03-04T12:03:15.657Z,71.62
2018-03-04T12:05:43.198Z,71.90
2018-03-04T12:08:11.480Z,68.03
2018-03-04T12:10:40.068Z,71.17
2018-03-04T12:13:07.666Z,64.85
2018-03-04T12:15:35.624Z,68.53
2018-03-04T12:18:04.531Z,67.73
2018-03-04T12:20:32.479Z,60.40
2018-03-04T12:23:00.510Z,62.00
2018-03-04T12:25:28.290Z,59.30
2018-03-04T12:27:57.093Z,60.43
2018-03-04T12:30:24.812Z,65.30
2018-03-04T12:32:52.587Z,57.72
2018-03-04T12:35:20.419Z,59.10
2018-03-04T12:37:48.265Z,55.17
2018-03-04T12:40:15.941Z,56.60
2018-03-04T12:42:44.750Z,53.70
2018-03-04T12:45:12.391Z,55.23
2018-03-04T12:47:41.722Z,56.73
2018-03-04T12:50:09.533Z,55.20
2018-03-04T12:52:37.516Z,51.67
2018-03-04T12:55:05.484Z,50.57
2018-03-04T12:57:33.043Z,52.70
2018-03-04T13:00:01.139Z,50.27
2018-03-04T13:02:28.679Z,48.80
2018-03-04T13:04:56.715Z,46.10
2018-03-04T13:07:24.303Z,43.57
2018-03-04T13:09:54.107Z,44.07
2018-03-04T13:12:21.691Z,44.25
2018-03-04T13:14:49.381Z,47.70
2018-03-04T13:17:17.014Z,45.80
2018-03-04T13:19:45.002Z,43.15
2018-03-04T13:22:12.603Z,37.10
2018-03-04T13:24:40.192Z,47.00
2018-03-04T13:27:07.777Z,43.93
2018-03-04T13:29:35.328Z,40.27
2018-03-04T13:32:04.245Z,40.75
2018-03-04T13:34:31.801Z,42.80
2018-03-04T13:37:05.644Z,43.23
2018-03-04T13:39:33.386Z,41.33
2018-03-04T13:42:01.034Z,50.70
2018-03-04T13:44:28.709Z,42.30
2018-03-04T13:46:56.276Z,38.97
2018-03-04T13:49:23.916Z,45.67
2018-03-04T13:51:51.479Z,42.47
2018-03-04T13:54:19.040Z,49.40
2018-03-04T13:56:46.585Z,39.83
2018-03-04T13:59:14.179Z,38.07
2018-03-04T14:01:41.754Z,36.88
2018-03-04T14:04:09.313Z,37.67
2018-03-04T14:06:37.141Z,45.73
2018-03-04T14:09:04.713Z,52.65
2018-03-04T14:11:32.268Z,42.97
2018-03-04T14:13:59.837Z,44.37
2018-03-04T14:16:27.431Z,42.37
2018-03-04T14:18:55.006Z,42.60
2018-03-04T14:21:22.982Z,48.67
2018-03-04T14:23:50.936Z,45.17
2018-03-04T14:26:18.886Z,47.05
2018-03-04T14:28:46.452Z,47.60
2018-03-04T14:31:14.023Z,45.00
2018-03-04T14:33:41.556Z,46.53
2018-03-04T14:36:09.144Z,46.70
2018-03-04T14:38:36.694Z,60.97
2018-03-04T14:41:04.272Z,55.10
2018-03-04T14:43:31.811Z,50.65
2018-03-04T14:46:00.222Z,55.60
2018-03-04T14:48:28.156Z,51.60
2018-03-04T14:50:55.734Z,49.90
2018-03-04T14:53:38.472Z,51.40
2018-03-04T14:56:06.102Z,55.63
2018-03-04T14:58:34.505Z,54.87
2018-03-04T15:01:02.075Z,56.80
2018-03-04T15:03:29.607Z,54.60
2018-03-04T15:05:57.578Z,62.73
2018-03-04T15:08:25.564Z,59.07
2018-03-04T15:10:53.190Z,61.80
2018-03-04T15:13:21.719Z,66.33
2018-03-04T15:15:49.294Z,69.60
2018-03-04T15:18:16.864Z,64.53
2018-03-04T15:20:44.430Z,66.17
2018-03-04T15:23:12.045Z,76.67
2018-03-04T15:25:40.070Z,73.30
2018-03-04T15:28:07.602Z,79.87
2018-03-04T15:30:35.197Z,67.40
2018-03-04T15:33:02.785Z,79.93
2018-03-04T15:35:30.817Z,71.57
2018-03-04T15:37:58.396Z,67.30
2018-03-04T15:40:26.047Z,73.07
2018-03-04T15:42:53.626Z,75.40
2018-03-04T15:45:21.177Z,74.67
2018-03-04T15:47:48.753Z,81.43
2018-03-04T15:50:17.290Z,73.10
2018-03-04T15:52:46.019Z,74.13
2018-03-04T15:55:13.994Z,78.93
2018-03-04T15:57:41.964Z,72.57
2018-03-04T16:00:09.531Z,73.10
2018-03-04T16:02:37.504Z,81.87
2018-03-04T16:05:05.453Z,74.47
2018-03-04T16:07:33.419Z,79.90
2018-03-04T16:10:01.022Z,76.27
2018-03-04T16:12:28.592Z,74.03
2018-03-04T16:14:56.240Z,81.53
2018-03-04T16:17:24.717Z,70.37
2018-03-04T16:19:53.143Z,78.93
2018-03-04T16:22:20.804Z,79.47
2018-03-04T16:24:48.485Z,76.87
2018-03-04T16:27:16.034Z,80.77
2018-03-04T16:29:43.588Z,91.72
2018-03-04T16:32:12.062Z,93.20
2018-03-04T16:34:39.645Z,82.10
2018-03-04T16:37:07.236Z,81.00
2018-03-04T16:39:34.802Z,89.53
2018-03-04T16:42:02.401Z,89.13
2018-03-04T16:44:29.944Z,81.10
2018-03-04T16:46:57.507Z,93.83
2018-03-04T16:49:25.102Z,91.90
2018-03-04T16:51:52.678Z,89.63
2018-03-04T16:54:20.669Z,95.28
2018-03-04T16:56:48.731Z,109.97
2018-03-04T16:59:16.282Z,105.93
2018-03-04T17:01:45.231Z,106.25
2018-03-04T17:04:12.819Z,100.43
2018-03-04T17:06:40.357Z,103.00
2018-03-04T17:09:07.930Z,95.10
2018-03-04T17:11:35.481Z,100.00
2018-03-04T17:14:03.041Z,84.57
2018-03-04T17:16:30.625Z,85.15
2018-03-04T17:18:58.618Z,86.57
2018-03-04T17:21:26.207Z,80.90
2018-03-04T17:23:53.817Z,78.57
2018-03-04T17:26:21.371Z,79.43
2018-03-04T17:28:49.345Z,83.40
2018-03-04T17:31:17.299Z,74.97
2018-03-04T17:33:44.895Z,81.00
2018-03-04T17:36:12.491Z,83.47
2018-03-04T17:38:40.063Z,78.70
2018-03-04T17:41:07.627Z,83.55
2018-03-04T17:43:35.188Z,81.67
2018-03-04T17:46:02.760Z,84.03
2018-03-04T17:48:30.334Z,77.23
2018-03-04T17:50:57.914Z,80.10
2018-03-04T17:53:25.905Z,81.57
2018-03-04T17:55:53.454Z,81.57
2018-03-04T17:58:21.047Z,84.47
2018-03-04T18:00:48.679Z,80.90
2018-03-04T18:03:17.177Z,77.07
2018-03-04T18:05:44.737Z,79.27
2018-03-04T18:08:13.198Z,83.07
2018-03-04T18:10:41.048Z,69.55
2018-03-04T18:13:11.174Z,75.23
2018-03-04T18:15:43.462Z,71.47
2018-03-04T18:18:14.966Z,70.43
2018-03-04T18:20:46.787Z,67.03
2018-03-04T18:23:14.752Z,66.33
2018-03-04T18:25:42.379Z,73.93
2018-03-04T18:28:09.982Z,67.93
2018-03-04T18:33:12.009Z,68.73
2018-03-04T18:35:39.670Z,57.90
2018-03-04T18:38:10.297Z,65.90
2018-03-04T18:40:38.345Z,65.67
2018-03-04T18:43:05.965Z,70.20
2018-03-04T18:45:33.582Z,83.13
2018-03-04T18:48:02.954Z,69.43
2018-03-04T18:50:30.506Z,70.67
2018-03-04T18:52:58.075Z,68.33
2018-03-04T18:55:25.653Z,65.83
2018-03-04T18:57:53.937Z,70.53
2018-03-04T19:00:21.574Z,59.93
2018-03-04T19:02:49.168Z,65.90
2018-03-04T19:05:17.130Z,64.95
2018-03-04T19:07:45.326Z,51.50
2018-03-04T19:10:13.132Z,50.93
2018-03-04T19:12:40.913Z,63.20
2018-03-04T19:15:08.494Z,58.70
2018-03-04T19:17:36.074Z,55.67
2018-03-04T19:20:04.042Z,63.90
2018-03-04T19:22:37.431Z,60.03
2018-03-04T19:25:06.314Z,57.20
2018-03-04T19:27:33.915Z,57.27
2018-03-04T19:30:01.469Z,66.10
2018-03-04T19:32:29.224Z,62.20
2018-03-04T19:34:56.781Z,60.33
2018-03-04T19:37:24.385Z,53.93
2018-03-04T19:39:51.966Z,59.90
2018-03-04T19:42:19.486Z,63.30
2018-03-04T19:44:47.049Z,64.97
2018-03-04T19:47:15.556Z,58.57
2018-03-04T19:49:43.374Z,69.77
2018-03-04T19:52:11.338Z,69.57
2018-03-04T19:54:39.800Z,57.72
2018-03-04T19:57:07.730Z,61.92
2018-03-04T19:59:36.235Z,69.00
2018-03-04T20:02:04.644Z,60.65
2018-03-04T20:04:32.202Z,70.63
2018-03-04T20:07:00.237Z,88.50
2018-03-04T20:09:27.750Z,68.70
2018-03-04T20:11:55.338Z,70.87
2018-03-04T20:14:23.687Z,70.00
2018-03-04T20:16:52.038Z,69.33
2018-03-04T20:19:20.009Z,58.40
2018-03-04T20:21:47.995Z,65.93
2018-03-04T20:24:16.837Z,61.70
2018-03-04T20:26:44.436Z,60.50
2018-03-04T20:29:14.169Z,59.27
2018-03-04T20:31:43.265Z,60.17
2018-03-04T20:34:11.085Z,63.43
2018-03-04T20:36:39.703Z,68.00
2018-03-04T20:39:07.341Z,76.82
2018-03-04T20:41:35.408Z,69.17
2018-03-04T20:44:03.452Z,74.60
2018-03-04T20:46:32.303Z,73.10
2018-03-04T20:48:59.981Z,65.43
2018-03-04T20:51:28.078Z,59.70
2018-03-04T20:53:56.382Z,68.17
2018-03-04T20:56:24.386Z,57.50
2018-03-04T20:58:51.954Z,56.00
2018-03-04T21:01:19.658Z,66.20
2018-03-04T21:03:47.250Z,68.87
2018-03-04T21:06:16.702Z,63.38
2018-03-04T21:08:45.213Z,55.53
2018-03-04T21:11:12.846Z,62.72
2018-03-04T21:13:41.916Z,61.63
2018-03-04T21:16:10.133Z,55.38
2018-03-04T21:18:37.727Z,60.35
2018-03-04T21:21:05.684Z,59.15
2018-03-04T21:23:36.784Z,53.77
2018-03-04T21:26:06.966Z,58.10
2018-03-04T21:28:37.402Z,58.90
2018-03-04T21:31:06.785Z,53.97
2018-03-04T21:36:22.595Z,53.90
2018-03-04T21:38:57.610Z,62.42
2018-03-04T21:41:27.498Z,56.97
2018-03-04T21:43:56.790Z,53.10
2018-03-04T21:46:37.137Z,53.07
2018-03-04T21:49:19.018Z,58.17
2018-03-04T21:51:47.336Z,67.83
2018-03-04T21:54:15.822Z,57.53
2018-03-04T21:56:45.630Z,54.35
2018-03-04T21:59:13.327Z,58.37
2018-03-04T22:01:41.010Z,56.30
2018-03-04T22:04:08.589Z,52.50
2018-03-04T22:06:36.450Z,54.27
2018-03-04T22:09:04.008Z,59.47
2018-03-04T22:11:31.560Z,55.83
2018-03-04T22:13:59.106Z,59.30
2018-03-04T22:16:26.679Z,57.73
2018-03-04T22:19:09.460Z,55.90
2018-03-04T22:21:39.903Z,57.10
2018-03-04T22:24:07.876Z,52.40
2018-03-04T22:26:35.906Z,59.63
2018-03-04T22:29:03.523Z,55.07
2018-03-04T22:31:32.687Z,59.13
2018-03-04T22:34:00.340Z,49.00
2018-03-04T22:36:27.943Z,55.97
2018-03-04T22:38:55.563Z,53.20
2018-03-04T22:41:23.156Z,49.57
2018-03-04T22:43:50.793Z,52.20
2018-03-04T22:46:19.020Z,58.00
2018-03-04T22:48:46.726Z,56.50
2018-03-04T22:51:14.737Z,55.00
2018-03-04T22:53:42.290Z,66.30
2018-03-04T22:56:09.861Z,60.20
2018-03-04T22:58:37.459Z,51.70
2018-03-04T23:01:05.697Z,53.13
2018-03-04T23:03:33.281Z,59.00
2018-03-04T23:06:00.909Z,58.97
2018-03-04T23:08:28.430Z,64.20
2018-03-04T23:10:57.049Z,65.13
2018-03-04T23:13:24.976Z,54.67
2018-03-04T23:15:52.545Z,70.33
2018-03-04T23:18:20.481Z,54.07
2018-03-04T23:20:48.049Z,57.87
2018-03-04T23:23:15.604Z,53.87
2018-03-04T23:25:43.154Z,64.37
2018-03-04T23:28:10.780Z,64.07
2018-03-04T23:30:38.990Z,54.70
2018-03-04T23:33:06.774Z,54.53
2018-03-04T23:35:34.345Z,68.37
2018-03-04T23:38:01.892Z,60.70
2018-03-04T23:40:29.447Z,59.93
2018-03-04T23:42:56.997Z,61.20
2018-03-04T23:45:24.574Z,62.58
2018-03-04T23:47:52.104Z,63.40
2018-03-04T23:50:19.679Z,69.27
2018-03-04T23:52:47.216Z,67.57
2018-03-04T23:55:14.792Z,68.53
2018-03-04T23:57:42.359Z,59.37
